sensor_id;sensor_type;location;lat;lon;timestamp;P1;durP1;ratioP1;P2;durP2;ratioP2
12433;SDS011;6281;49.038;8.372;2024-02-26T00:02:16;2.47;;;1.57;;
12433;SDS011;6281;49.038;8.372;2024-02-26T00:04:44;1.53;;;1.43;;
12433;SDS011;6281;49.038;8.372;2024-02-26T00:07:11;2.43;;;1.57;;
12433;SDS011;6281;49.038;8.372;2024-02-26T00:09:38;2.40;;;1.23;;
12433;SDS011;6281;49.038;8.372;2024-02-26T00:12:05;2.53;;;1.70;;
12433;SDS011;6281;49.038;8.372;2024-02-26T00:14:32;1.63;;;1.40;;
12433;SDS011;6281;49.038;8.372;2024-02-26T00:17:02;4.40;;;1.70;;
12433;SDS011;6281;49.038;8.372;2024-02-26T00:19:29;1.70;;;1.40;;
12433;SDS011;6281;49.038;8.372;2024-02-26T00:21:56;3.57;;;1.33;;
12433;SDS011;6281;49.038;8.372;2024-02-26T00:24:22;1.40;;;1.20;;
12433;SDS011;6281;49.038;8.372;2024-02-26T00:26:49;2.23;;;1.50;;
12433;SDS011;6281;49.038;8.372;2024-02-26T00:29:19;2.30;;;1.30;;
12433;SDS011;6281;49.038;8.372;2024-02-26T00:31:46;2.23;;;1.30;;
12433;SDS011;6281;49.038;8.372;2024-02-26T00:34:15;2.10;;;1.20;;
12433;SDS011;6281;49.038;8.372;2024-02-26T00:36:42;1.80;;;1.20;;
12433;SDS011;6281;49.038;8.372;2024-02-26T00:39:09;1.83;;;1.10;;
12433;SDS011;6281;49.038;8.372;2024-02-26T00:41:38;2.07;;;1.03;;
12433;SDS011;6281;49.038;8.372;2024-02-26T00:44:05;1.97;;;1.13;;
12433;SDS011;6281;49.038;8.372;2024-02-26T00:46:31;2.03;;;1.10;;
12433;SDS011;6281;49.038;8.372;2024-02-26T00:48:58;2.93;;;1.13;;
12433;SDS011;6281;49.038;8.372;2024-02-26T00:51:28;2.43;;;1.23;;
12433;SDS011;6281;49.038;8.372;2024-02-26T00:53:54;1.87;;;1.27;;
12433;SDS011;6281;49.038;8.372;2024-02-26T00:56:22;1.43;;;1.10;;
12433;SDS011;6281;49.038;8.372;2024-02-26T00:58:48;1.40;;;1.20;;
12433;SDS011;6281;49.038;8.372;2024-02-26T01:01:16;1.37;;;1.20;;
12433;SDS011;6281;49.038;8.372;2024-02-26T01:03:43;3.77;;;1.50;;
12433;SDS011;6281;49.038;8.372;2024-02-26T01:06:10;1.30;;;1.20;;
12433;SDS011;6281;49.038;8.372;2024-02-26T01:08:38;1.67;;;1.10;;
12433;SDS011;6281;49.038;8.372;2024-02-26T01:11:05;3.60;;;1.33;;
12433;SDS011;6281;49.038;8.372;2024-02-26T01:13:32;1.23;;;1.10;;
12433;SDS011;6281;49.038;8.372;2024-02-26T01:15:59;1.63;;;1.23;;
12433;SDS011;6281;49.038;8.372;2024-02-26T01:18:26;1.83;;;1.10;;
12433;SDS011;6281;49.038;8.372;2024-02-26T01:20:53;2.20;;;1.17;;
12433;SDS011;6281;49.038;8.372;2024-02-26T01:23:22;1.17;;;1.07;;
12433;SDS011;6281;49.038;8.372;2024-02-26T01:25:51;1.13;;;1.03;;
12433;SDS011;6281;49.038;8.372;2024-02-26T01:28:18;2.13;;;1.30;;
12433;SDS011;6281;49.038;8.372;2024-02-26T01:30:44;1.90;;;1.10;;
12433;SDS011;6281;49.038;8.372;2024-02-26T01:33:11;2.27;;;1.20;;
12433;SDS011;6281;49.038;8.372;2024-02-26T01:35:38;2.67;;;1.17;;
12433;SDS011;6281;49.038;8.372;2024-02-26T01:38:05;1.87;;;1.27;;
12433;SDS011;6281;49.038;8.372;2024-02-26T01:40:32;2.13;;;1.40;;
12433;SDS011;6281;49.038;8.372;2024-02-26T01:43:01;2.17;;;1.40;;
12433;SDS011;6281;49.038;8.372;2024-02-26T01:45:28;1.87;;;1.10;;
12433;SDS011;6281;49.038;8.372;2024-02-26T01:47:55;3.53;;;1.30;;
12433;SDS011;6281;49.038;8.372;2024-02-26T01:50:23;2.50;;;1.20;;
12433;SDS011;6281;49.038;8.372;2024-02-26T01:52:50;2.00;;;1.40;;
12433;SDS011;6281;49.038;8.372;2024-02-26T01:55:19;1.83;;;1.30;;
12433;SDS011;6281;49.038;8.372;2024-02-26T01:57:47;2.00;;;1.50;;
12433;SDS011;6281;49.038;8.372;2024-02-26T02:00:18;1.63;;;1.27;;
12433;SDS011;6281;49.038;8.372;2024-02-26T02:02:46;3.70;;;1.40;;
12433;SDS011;6281;49.038;8.372;2024-02-26T02:05:14;2.13;;;1.30;;
12433;SDS011;6281;49.038;8.372;2024-02-26T02:07:41;1.73;;;1.27;;
12433;SDS011;6281;49.038;8.372;2024-02-26T02:10:09;1.73;;;1.43;;
12433;SDS011;6281;49.038;8.372;2024-02-26T02:12:36;1.57;;;1.10;;
12433;SDS011;6281;49.038;8.372;2024-02-26T02:15:05;1.27;;;1.10;;
12433;SDS011;6281;49.038;8.372;2024-02-26T02:17:34;2.00;;;1.03;;
12433;SDS011;6281;49.038;8.372;2024-02-26T02:20:02;1.60;;;1.07;;
12433;SDS011;6281;49.038;8.372;2024-02-26T02:22:30;1.10;;;0.80;;
12433;SDS011;6281;49.038;8.372;2024-02-26T02:24:58;1.33;;;0.97;;
12433;SDS011;6281;49.038;8.372;2024-02-26T02:27:26;0.73;;;0.70;;
12433;SDS011;6281;49.038;8.372;2024-02-26T02:29:53;1.50;;;0.97;;
12433;SDS011;6281;49.038;8.372;2024-02-26T02:32:20;0.87;;;0.73;;
12433;SDS011;6281;49.038;8.372;2024-02-26T02:34:49;0.80;;;0.80;;
12433;SDS011;6281;49.038;8.372;2024-02-26T02:37:15;1.30;;;0.97;;
12433;SDS011;6281;49.038;8.372;2024-02-26T02:39:44;1.13;;;0.90;;
12433;SDS011;6281;49.038;8.372;2024-02-26T02:42:11;1.30;;;0.80;;
12433;SDS011;6281;49.038;8.372;2024-02-26T02:44:38;4.27;;;1.10;;
12433;SDS011;6281;49.038;8.372;2024-02-26T02:47:05;0.67;;;0.63;;
12433;SDS011;6281;49.038;8.372;2024-02-26T02:49:31;0.80;;;0.70;;
12433;SDS011;6281;49.038;8.372;2024-02-26T02:51:58;1.23;;;0.70;;
12433;SDS011;6281;49.038;8.372;2024-02-26T02:54:26;0.80;;;0.60;;
12433;SDS011;6281;49.038;8.372;2024-02-26T02:56:54;2.53;;;1.07;;
12433;SDS011;6281;49.038;8.372;2024-02-26T02:59:21;2.53;;;0.83;;
12433;SDS011;6281;49.038;8.372;2024-02-26T03:01:47;1.17;;;0.73;;
12433;SDS011;6281;49.038;8.372;2024-02-26T03:04:14;1.87;;;1.00;;
12433;SDS011;6281;49.038;8.372;2024-02-26T03:06:41;1.00;;;0.60;;
12433;SDS011;6281;49.038;8.372;2024-02-26T03:09:08;1.03;;;0.70;;
12433;SDS011;6281;49.038;8.372;2024-02-26T03:11:34;3.03;;;0.87;;
12433;SDS011;6281;49.038;8.372;2024-02-26T03:14:03;0.80;;;0.60;;
12433;SDS011;6281;49.038;8.372;2024-02-26T03:16:30;0.97;;;0.80;;
12433;SDS011;6281;49.038;8.372;2024-02-26T03:18:56;1.73;;;0.60;;
12433;SDS011;6281;49.038;8.372;2024-02-26T03:21:23;2.70;;;0.80;;
12433;SDS011;6281;49.038;8.372;2024-02-26T03:23:51;1.83;;;0.83;;
12433;SDS011;6281;49.038;8.372;2024-02-26T03:26:18;1.73;;;0.70;;
12433;SDS011;6281;49.038;8.372;2024-02-26T03:28:46;1.17;;;0.57;;
12433;SDS011;6281;49.038;8.372;2024-02-26T03:31:14;0.97;;;0.67;;
12433;SDS011;6281;49.038;8.372;2024-02-26T03:33:41;2.13;;;0.53;;
12433;SDS011;6281;49.038;8.372;2024-02-26T03:36:08;2.17;;;0.83;;
12433;SDS011;6281;49.038;8.372;2024-02-26T03:38:36;1.13;;;0.70;;
12433;SDS011;6281;49.038;8.372;2024-02-26T03:41:03;0.90;;;0.80;;
12433;SDS011;6281;49.038;8.372;2024-02-26T03:43:30;0.90;;;0.70;;
12433;SDS011;6281;49.038;8.372;2024-02-26T03:45:57;1.30;;;0.60;;
12433;SDS011;6281;49.038;8.372;2024-02-26T03:48:26;1.83;;;0.60;;
12433;SDS011;6281;49.038;8.372;2024-02-26T03:50:58;0.70;;;0.60;;
12433;SDS011;6281;49.038;8.372;2024-02-26T03:53:28;0.90;;;0.70;;
12433;SDS011;6281;49.038;8.372;2024-02-26T03:55:54;0.80;;;0.60;;
12433;SDS011;6281;49.038;8.372;2024-02-26T03:58:21;0.93;;;0.70;;
12433;SDS011;6281;49.038;8.372;2024-02-26T04:00:48;1.57;;;0.60;;
12433;SDS011;6281;49.038;8.372;2024-02-26T04:05:29;0.77;;;0.60;;
12433;SDS011;6281;49.038;8.372;2024-02-26T04:07:01;1.43;;;0.70;;
12433;SDS011;6281;49.038;8.372;2024-02-26T04:10:01;1.33;;;0.60;;
12433;SDS011;6281;49.038;8.372;2024-02-26T04:13:20;0.97;;;0.77;;
12433;SDS011;6281;49.038;8.372;2024-02-26T04:15:54;2.43;;;0.97;;
12433;SDS011;6281;49.038;8.372;2024-02-26T04:18:21;0.90;;;0.77;;
12433;SDS011;6281;49.038;8.372;2024-02-26T04:20:47;1.07;;;0.87;;
12433;SDS011;6281;49.038;8.372;2024-02-26T04:23:18;1.07;;;0.80;;
12433;SDS011;6281;49.038;8.372;2024-02-26T04:25:44;1.10;;;0.80;;
12433;SDS011;6281;49.038;8.372;2024-02-26T04:28:12;1.03;;;0.77;;
12433;SDS011;6281;49.038;8.372;2024-02-26T04:30:38;0.93;;;0.70;;
12433;SDS011;6281;49.038;8.372;2024-02-26T04:33:05;1.13;;;0.97;;
12433;SDS011;6281;49.038;8.372;2024-02-26T04:35:32;3.27;;;0.80;;
12433;SDS011;6281;49.038;8.372;2024-02-26T04:38:00;1.70;;;0.80;;
12433;SDS011;6281;49.038;8.372;2024-02-26T04:40:28;0.93;;;0.80;;
12433;SDS011;6281;49.038;8.372;2024-02-26T04:42:55;0.97;;;0.80;;
12433;SDS011;6281;49.038;8.372;2024-02-26T04:45:22;1.57;;;0.73;;
12433;SDS011;6281;49.038;8.372;2024-02-26T04:47:49;0.70;;;0.70;;
12433;SDS011;6281;49.038;8.372;2024-02-26T04:50:16;1.23;;;0.80;;
12433;SDS011;6281;49.038;8.372;2024-02-26T04:52:42;2.53;;;0.87;;
12433;SDS011;6281;49.038;8.372;2024-02-26T04:55:09;2.33;;;1.00;;
12433;SDS011;6281;49.038;8.372;2024-02-26T04:57:37;0.80;;;0.80;;
12433;SDS011;6281;49.038;8.372;2024-02-26T05:00:05;1.63;;;1.00;;
12433;SDS011;6281;49.038;8.372;2024-02-26T05:02:33;1.90;;;0.93;;
12433;SDS011;6281;49.038;8.372;2024-02-26T05:05:03;0.80;;;0.80;;
12433;SDS011;6281;49.038;8.372;2024-02-26T05:07:30;1.20;;;0.80;;
12433;SDS011;6281;49.038;8.372;2024-02-26T05:09:57;0.80;;;0.70;;
12433;SDS011;6281;49.038;8.372;2024-02-26T05:12:24;1.13;;;0.80;;
12433;SDS011;6281;49.038;8.372;2024-02-26T05:14:52;2.13;;;0.80;;
12433;SDS011;6281;49.038;8.372;2024-02-26T05:17:19;0.80;;;0.70;;
12433;SDS011;6281;49.038;8.372;2024-02-26T05:19:46;0.80;;;0.80;;
12433;SDS011;6281;49.038;8.372;2024-02-26T05:22:12;1.43;;;0.90;;
12433;SDS011;6281;49.038;8.372;2024-02-26T05:24:39;0.60;;;0.53;;
12433;SDS011;6281;49.038;8.372;2024-02-26T05:27:06;0.87;;;0.67;;
12433;SDS011;6281;49.038;8.372;2024-02-26T05:29:33;0.90;;;0.80;;
12433;SDS011;6281;49.038;8.372;2024-02-26T05:32:01;0.90;;;0.60;;
12433;SDS011;6281;49.038;8.372;2024-02-26T05:34:28;0.80;;;0.80;;
12433;SDS011;6281;49.038;8.372;2024-02-26T05:36:55;0.70;;;0.70;;
12433;SDS011;6281;49.038;8.372;2024-02-26T05:39:21;1.30;;;0.83;;
12433;SDS011;6281;49.038;8.372;2024-02-26T05:41:48;1.33;;;0.93;;
12433;SDS011;6281;49.038;8.372;2024-02-26T05:44:15;1.47;;;1.17;;
12433;SDS011;6281;49.038;8.372;2024-02-26T05:46:43;0.80;;;0.70;;
12433;SDS011;6281;49.038;8.372;2024-02-26T05:49:11;0.83;;;0.70;;
12433;SDS011;6281;49.038;8.372;2024-02-26T05:51:37;1.77;;;0.93;;
12433;SDS011;6281;49.038;8.372;2024-02-26T05:54:04;1.27;;;0.87;;
12433;SDS011;6281;49.038;8.372;2024-02-26T05:56:31;1.27;;;0.73;;
12433;SDS011;6281;49.038;8.372;2024-02-26T05:58:58;2.10;;;0.70;;
12433;SDS011;6281;49.038;8.372;2024-02-26T06:01:24;1.30;;;0.80;;
12433;SDS011;6281;49.038;8.372;2024-02-26T06:03:51;0.70;;;0.60;;
12433;SDS011;6281;49.038;8.372;2024-02-26T06:06:19;2.10;;;0.77;;
12433;SDS011;6281;49.038;8.372;2024-02-26T06:08:48;1.47;;;0.80;;
12433;SDS011;6281;49.038;8.372;2024-02-26T06:11:14;0.77;;;0.77;;
12433;SDS011;6281;49.038;8.372;2024-02-26T06:13:41;0.77;;;0.77;;
12433;SDS011;6281;49.038;8.372;2024-02-26T06:16:08;1.20;;;0.83;;
12433;SDS011;6281;49.038;8.372;2024-02-26T06:18:35;0.70;;;0.70;;
12433;SDS011;6281;49.038;8.372;2024-02-26T06:21:02;1.97;;;0.90;;
12433;SDS011;6281;49.038;8.372;2024-02-26T06:23:30;2.03;;;0.80;;
12433;SDS011;6281;49.038;8.372;2024-02-26T06:25:57;2.57;;;0.80;;
12433;SDS011;6281;49.038;8.372;2024-02-26T06:28:24;1.53;;;1.17;;
12433;SDS011;6281;49.038;8.372;2024-02-26T06:30:50;1.30;;;1.20;;
12433;SDS011;6281;49.038;8.372;2024-02-26T06:33:17;3.27;;;1.40;;
12433;SDS011;6281;49.038;8.372;2024-02-26T06:35:44;1.60;;;1.37;;
12433;SDS011;6281;49.038;8.372;2024-02-26T06:38:11;2.10;;;1.60;;
12433;SDS011;6281;49.038;8.372;2024-02-26T06:40:40;1.30;;;1.13;;
12433;SDS011;6281;49.038;8.372;2024-02-26T06:43:07;1.10;;;1.00;;
12433;SDS011;6281;49.038;8.372;2024-02-26T06:45:33;1.30;;;1.13;;
12433;SDS011;6281;49.038;8.372;2024-02-26T06:48:00;2.37;;;1.20;;
12433;SDS011;6281;49.038;8.372;2024-02-26T06:50:27;3.00;;;1.20;;
12433;SDS011;6281;49.038;8.372;2024-02-26T06:52:54;1.57;;;1.10;;
12433;SDS011;6281;49.038;8.372;2024-02-26T06:55:21;1.93;;;1.00;;
12433;SDS011;6281;49.038;8.372;2024-02-26T06:57:49;1.93;;;1.00;;
12433;SDS011;6281;49.038;8.372;2024-02-26T07:00:16;1.03;;;0.93;;
12433;SDS011;6281;49.038;8.372;2024-02-26T07:02:43;1.90;;;1.20;;
12433;SDS011;6281;49.038;8.372;2024-02-26T07:05:10;1.97;;;1.00;;
12433;SDS011;6281;49.038;8.372;2024-02-26T07:07:37;1.00;;;0.90;;
12433;SDS011;6281;49.038;8.372;2024-02-26T07:10:04;2.70;;;1.03;;
12433;SDS011;6281;49.038;8.372;2024-02-26T07:12:32;2.27;;;0.90;;
12433;SDS011;6281;49.038;8.372;2024-02-26T07:15:00;1.43;;;1.10;;
12433;SDS011;6281;49.038;8.372;2024-02-26T07:17:27;2.10;;;1.03;;
12433;SDS011;6281;49.038;8.372;2024-02-26T07:19:54;1.40;;;1.20;;
12433;SDS011;6281;49.038;8.372;2024-02-26T07:22:21;1.33;;;1.10;;
12433;SDS011;6281;49.038;8.372;2024-02-26T07:24:49;1.23;;;1.10;;
12433;SDS011;6281;49.038;8.372;2024-02-26T07:27:16;1.20;;;1.10;;
12433;SDS011;6281;49.038;8.372;2024-02-26T07:29:44;1.10;;;1.00;;
12433;SDS011;6281;49.038;8.372;2024-02-26T07:32:13;2.47;;;1.17;;
12433;SDS011;6281;49.038;8.372;2024-02-26T07:34:40;1.60;;;1.37;;
12433;SDS011;6281;49.038;8.372;2024-02-26T07:37:09;4.07;;;1.10;;
12433;SDS011;6281;49.038;8.372;2024-02-26T07:39:36;3.37;;;0.90;;
12433;SDS011;6281;49.038;8.372;2024-02-26T07:42:03;1.33;;;0.80;;
12433;SDS011;6281;49.038;8.372;2024-02-26T07:44:31;1.27;;;0.93;;
12433;SDS011;6281;49.038;8.372;2024-02-26T07:46:58;3.10;;;0.90;;
12433;SDS011;6281;49.038;8.372;2024-02-26T07:49:26;0.90;;;0.80;;
12433;SDS011;6281;49.038;8.372;2024-02-26T07:51:53;0.90;;;0.80;;
12433;SDS011;6281;49.038;8.372;2024-02-26T07:54:23;1.53;;;1.00;;
12433;SDS011;6281;49.038;8.372;2024-02-26T07:56:49;1.07;;;0.90;;
12433;SDS011;6281;49.038;8.372;2024-02-26T07:59:16;1.57;;;1.20;;
12433;SDS011;6281;49.038;8.372;2024-02-26T08:01:43;1.27;;;1.17;;
12433;SDS011;6281;49.038;8.372;2024-02-26T08:04:11;1.00;;;0.90;;
12433;SDS011;6281;49.038;8.372;2024-02-26T08:06:39;3.10;;;0.97;;
12433;SDS011;6281;49.038;8.372;2024-02-26T08:09:06;1.00;;;0.90;;
12433;SDS011;6281;49.038;8.372;2024-02-26T08:11:33;1.97;;;1.17;;
12433;SDS011;6281;49.038;8.372;2024-02-26T08:14:00;2.40;;;0.70;;
12433;SDS011;6281;49.038;8.372;2024-02-26T08:16:27;1.63;;;0.90;;
12433;SDS011;6281;49.038;8.372;2024-02-26T08:18:54;1.63;;;0.87;;
12433;SDS011;6281;49.038;8.372;2024-02-26T08:21:21;1.20;;;0.90;;
12433;SDS011;6281;49.038;8.372;2024-02-26T08:23:50;1.20;;;0.90;;
12433;SDS011;6281;49.038;8.372;2024-02-26T08:26:16;1.07;;;0.80;;
12433;SDS011;6281;49.038;8.372;2024-02-26T08:28:45;0.70;;;0.70;;
12433;SDS011;6281;49.038;8.372;2024-02-26T08:31:13;1.13;;;1.03;;
12433;SDS011;6281;49.038;8.372;2024-02-26T08:33:39;5.87;;;3.17;;
12433;SDS011;6281;49.038;8.372;2024-02-26T08:36:07;3.27;;;2.37;;
12433;SDS011;6281;49.038;8.372;2024-02-26T08:38:34;2.63;;;2.43;;
12433;SDS011;6281;49.038;8.372;2024-02-26T08:41:02;3.17;;;1.73;;
12433;SDS011;6281;49.038;8.372;2024-02-26T08:43:30;1.70;;;1.20;;
12433;SDS011;6281;49.038;8.372;2024-02-26T08:45:57;1.30;;;1.10;;
12433;SDS011;6281;49.038;8.372;2024-02-26T08:48:24;1.93;;;1.30;;
12433;SDS011;6281;49.038;8.372;2024-02-26T08:50:51;1.20;;;1.10;;
12433;SDS011;6281;49.038;8.372;2024-02-26T08:53:18;1.37;;;1.23;;
12433;SDS011;6281;49.038;8.372;2024-02-26T08:55:45;4.03;;;3.10;;
12433;SDS011;6281;49.038;8.372;2024-02-26T08:58:13;2.67;;;2.47;;
12433;SDS011;6281;49.038;8.372;2024-02-26T09:00:40;2.60;;;1.97;;
12433;SDS011;6281;49.038;8.372;2024-02-26T09:03:07;1.83;;;1.43;;
12433;SDS011;6281;49.038;8.372;2024-02-26T09:05:34;2.13;;;1.20;;
12433;SDS011;6281;49.038;8.372;2024-02-26T09:08:01;1.57;;;1.13;;
12433;SDS011;6281;49.038;8.372;2024-02-26T09:10:28;1.50;;;1.10;;
12433;SDS011;6281;49.038;8.372;2024-02-26T09:12:55;2.67;;;1.00;;
12433;SDS011;6281;49.038;8.372;2024-02-26T09:15:23;2.80;;;1.03;;
12433;SDS011;6281;49.038;8.372;2024-02-26T09:17:50;2.70;;;1.40;;
12433;SDS011;6281;49.038;8.372;2024-02-26T09:20:17;1.30;;;1.10;;
12433;SDS011;6281;49.038;8.372;2024-02-26T09:22:45;1.70;;;1.10;;
12433;SDS011;6281;49.038;8.372;2024-02-26T09:25:12;1.17;;;1.00;;
12433;SDS011;6281;49.038;8.372;2024-02-26T09:27:40;1.77;;;1.23;;
12433;SDS011;6281;49.038;8.372;2024-02-26T09:30:07;2.67;;;1.57;;
12433;SDS011;6281;49.038;8.372;2024-02-26T09:32:36;2.30;;;1.47;;
12433;SDS011;6281;49.038;8.372;2024-02-26T09:35:03;1.43;;;1.33;;
12433;SDS011;6281;49.038;8.372;2024-02-26T09:37:30;1.40;;;1.10;;
12433;SDS011;6281;49.038;8.372;2024-02-26T09:39:57;2.37;;;1.20;;
12433;SDS011;6281;49.038;8.372;2024-02-26T09:42:25;1.93;;;1.37;;
12433;SDS011;6281;49.038;8.372;2024-02-26T09:44:53;1.73;;;1.20;;
12433;SDS011;6281;49.038;8.372;2024-02-26T09:47:21;1.70;;;1.10;;
12433;SDS011;6281;49.038;8.372;2024-02-26T09:49:51;1.90;;;1.10;;
12433;SDS011;6281;49.038;8.372;2024-02-26T09:52:19;1.20;;;1.00;;
12433;SDS011;6281;49.038;8.372;2024-02-26T09:54:46;2.20;;;1.00;;
12433;SDS011;6281;49.038;8.372;2024-02-26T09:57:14;2.27;;;1.30;;
12433;SDS011;6281;49.038;8.372;2024-02-26T09:59:42;2.00;;;1.20;;
12433;SDS011;6281;49.038;8.372;2024-02-26T10:02:11;1.73;;;1.10;;
12433;SDS011;6281;49.038;8.372;2024-02-26T10:04:40;1.80;;;1.20;;
12433;SDS011;6281;49.038;8.372;2024-02-26T10:07:20;2.07;;;1.20;;
12433;SDS011;6281;49.038;8.372;2024-02-26T10:10:01;2.33;;;1.10;;
12433;SDS011;6281;49.038;8.372;2024-02-26T10:12:40;1.60;;;1.30;;
12433;SDS011;6281;49.038;8.372;2024-02-26T10:15:29;2.53;;;1.00;;
12433;SDS011;6281;49.038;8.372;2024-02-26T10:17:59;1.40;;;1.07;;
12433;SDS011;6281;49.038;8.372;2024-02-26T10:20:40;1.57;;;1.20;;
12433;SDS011;6281;49.038;8.372;2024-02-26T10:23:20;1.13;;;0.97;;
12433;SDS011;6281;49.038;8.372;2024-02-26T10:28:49;2.17;;;1.23;;
12433;SDS011;6281;49.038;8.372;2024-02-26T10:31:48;3.13;;;1.30;;
12433;SDS011;6281;49.038;8.372;2024-02-26T10:34:30;1.57;;;1.30;;
12433;SDS011;6281;49.038;8.372;2024-02-26T10:37:19;1.10;;;1.00;;
12433;SDS011;6281;49.038;8.372;2024-02-26T10:40:01;1.73;;;1.00;;
12433;SDS011;6281;49.038;8.372;2024-02-26T10:45:09;1.27;;;0.80;;
12433;SDS011;6281;49.038;8.372;2024-02-26T10:46:01;2.20;;;0.90;;
12433;SDS011;6281;49.038;8.372;2024-02-26T10:49:30;1.00;;;0.90;;
12433;SDS011;6281;49.038;8.372;2024-02-26T10:52:40;1.27;;;1.10;;
12433;SDS011;6281;49.038;8.372;2024-02-26T10:56:01;1.30;;;1.00;;
12433;SDS011;6281;49.038;8.372;2024-02-26T10:59:05;1.00;;;0.90;;
12433;SDS011;6281;49.038;8.372;2024-02-26T11:01:36;1.10;;;1.00;;
12433;SDS011;6281;49.038;8.372;2024-02-26T11:04:03;1.73;;;0.90;;
12433;SDS011;6281;49.038;8.372;2024-02-26T11:06:38;3.87;;;1.27;;
12433;SDS011;6281;49.038;8.372;2024-02-26T11:09:09;1.23;;;1.13;;
12433;SDS011;6281;49.038;8.372;2024-02-26T11:11:59;4.60;;;1.20;;
12433;SDS011;6281;49.038;8.372;2024-02-26T11:14:38;2.73;;;0.97;;
12433;SDS011;6281;49.038;8.372;2024-02-26T11:17:06;1.10;;;0.70;;
12433;SDS011;6281;49.038;8.372;2024-02-26T11:19:35;1.57;;;0.90;;
12433;SDS011;6281;49.038;8.372;2024-02-26T11:22:02;1.77;;;1.10;;
12433;SDS011;6281;49.038;8.372;2024-02-26T11:24:32;1.17;;;0.90;;
12433;SDS011;6281;49.038;8.372;2024-02-26T11:27:01;1.63;;;0.80;;
12433;SDS011;6281;49.038;8.372;2024-02-26T11:29:32;1.20;;;0.90;;
12433;SDS011;6281;49.038;8.372;2024-02-26T11:32:03;1.00;;;0.80;;
12433;SDS011;6281;49.038;8.372;2024-02-26T11:34:33;1.10;;;1.00;;
12433;SDS011;6281;49.038;8.372;2024-02-26T11:37:08;0.80;;;0.80;;
12433;SDS011;6281;49.038;8.372;2024-02-26T11:39:36;1.13;;;0.70;;
12433;SDS011;6281;49.038;8.372;2024-02-26T11:42:08;1.07;;;0.60;;
12433;SDS011;6281;49.038;8.372;2024-02-26T11:44:36;1.03;;;0.73;;
12433;SDS011;6281;49.038;8.372;2024-02-26T11:47:09;1.20;;;0.80;;
12433;SDS011;6281;49.038;8.372;2024-02-26T11:49:36;1.40;;;0.80;;
12433;SDS011;6281;49.038;8.372;2024-02-26T11:52:04;1.50;;;0.70;;
12433;SDS011;6281;49.038;8.372;2024-02-26T11:54:45;0.80;;;0.80;;
12433;SDS011;6281;49.038;8.372;2024-02-26T11:57:26;1.20;;;0.80;;
12433;SDS011;6281;49.038;8.372;2024-02-26T11:59:54;1.53;;;0.90;;
12433;SDS011;6281;49.038;8.372;2024-02-26T12:05:08;1.60;;;0.80;;
12433;SDS011;6281;49.038;8.372;2024-02-26T12:07:39;0.77;;;0.77;;
12433;SDS011;6281;49.038;8.372;2024-02-26T12:10:20;1.13;;;0.80;;
12433;SDS011;6281;49.038;8.372;2024-02-26T12:13:02;2.17;;;0.77;;
12433;SDS011;6281;49.038;8.372;2024-02-26T12:15:32;1.20;;;0.73;;
12433;SDS011;6281;49.038;8.372;2024-02-26T12:18:01;1.43;;;0.90;;
12433;SDS011;6281;49.038;8.372;2024-02-26T12:20:28;1.10;;;0.77;;
12433;SDS011;6281;49.038;8.372;2024-02-26T12:22:55;1.57;;;0.60;;
12433;SDS011;6281;49.038;8.372;2024-02-26T12:25:25;0.90;;;0.60;;
12433;SDS011;6281;49.038;8.372;2024-02-26T12:27:53;2.20;;;0.67;;
12433;SDS011;6281;49.038;8.372;2024-02-26T12:30:25;1.83;;;0.70;;
12433;SDS011;6281;49.038;8.372;2024-02-26T12:32:55;1.50;;;0.70;;
12433;SDS011;6281;49.038;8.372;2024-02-26T12:35:25;2.20;;;0.73;;
12433;SDS011;6281;49.038;8.372;2024-02-26T12:37:53;2.67;;;0.70;;
12433;SDS011;6281;49.038;8.372;2024-02-26T12:40:21;0.70;;;0.60;;
12433;SDS011;6281;49.038;8.372;2024-02-26T12:42:48;0.60;;;0.60;;
12433;SDS011;6281;49.038;8.372;2024-02-26T12:45:15;0.60;;;0.47;;
12433;SDS011;6281;49.038;8.372;2024-02-26T12:47:47;2.10;;;0.80;;
12433;SDS011;6281;49.038;8.372;2024-02-26T12:50:15;0.90;;;0.70;;
12433;SDS011;6281;49.038;8.372;2024-02-26T12:52:43;1.27;;;0.73;;
12433;SDS011;6281;49.038;8.372;2024-02-26T12:55:13;0.60;;;0.50;;
12433;SDS011;6281;49.038;8.372;2024-02-26T12:57:42;0.80;;;0.63;;
12433;SDS011;6281;49.038;8.372;2024-02-26T13:00:11;2.23;;;0.50;;
12433;SDS011;6281;49.038;8.372;2024-02-26T13:02:40;2.20;;;0.60;;
12433;SDS011;6281;49.038;8.372;2024-02-26T13:05:11;1.40;;;0.70;;
12433;SDS011;6281;49.038;8.372;2024-02-26T13:07:42;0.67;;;0.50;;
12433;SDS011;6281;49.038;8.372;2024-02-26T13:10:12;0.60;;;0.50;;
12433;SDS011;6281;49.038;8.372;2024-02-26T13:12:43;4.77;;;0.97;;
12433;SDS011;6281;49.038;8.372;2024-02-26T13:15:14;0.80;;;0.80;;
12433;SDS011;6281;49.038;8.372;2024-02-26T13:17:42;1.87;;;0.80;;
12433;SDS011;6281;49.038;8.372;2024-02-26T13:20:11;1.00;;;0.90;;
12433;SDS011;6281;49.038;8.372;2024-02-26T13:22:38;1.07;;;0.97;;
12433;SDS011;6281;49.038;8.372;2024-02-26T13:25:05;0.83;;;0.70;;
12433;SDS011;6281;49.038;8.372;2024-02-26T13:27:33;1.63;;;0.70;;
12433;SDS011;6281;49.038;8.372;2024-02-26T13:30:04;2.10;;;0.60;;
12433;SDS011;6281;49.038;8.372;2024-02-26T13:32:35;1.00;;;0.70;;
12433;SDS011;6281;49.038;8.372;2024-02-26T13:35:07;0.90;;;0.50;;
12433;SDS011;6281;49.038;8.372;2024-02-26T13:37:36;0.63;;;0.53;;
12433;SDS011;6281;49.038;8.372;2024-02-26T13:40:04;0.77;;;0.53;;
12433;SDS011;6281;49.038;8.372;2024-02-26T13:42:33;0.77;;;0.40;;
12433;SDS011;6281;49.038;8.372;2024-02-26T13:45:00;1.17;;;0.60;;
12433;SDS011;6281;49.038;8.372;2024-02-26T13:47:27;2.03;;;0.60;;
12433;SDS011;6281;49.038;8.372;2024-02-26T13:49:54;0.53;;;0.40;;
12433;SDS011;6281;49.038;8.372;2024-02-26T13:52:22;0.60;;;0.50;;
12433;SDS011;6281;49.038;8.372;2024-02-26T13:54:50;0.50;;;0.40;;
12433;SDS011;6281;49.038;8.372;2024-02-26T13:57:17;0.93;;;0.57;;
12433;SDS011;6281;49.038;8.372;2024-02-26T13:59:45;2.00;;;0.33;;
12433;SDS011;6281;49.038;8.372;2024-02-26T14:02:12;1.73;;;1.60;;
12433;SDS011;6281;49.038;8.372;2024-02-26T14:04:39;0.60;;;0.50;;
12433;SDS011;6281;49.038;8.372;2024-02-26T14:07:06;1.13;;;0.50;;
12433;SDS011;6281;49.038;8.372;2024-02-26T14:09:34;1.07;;;0.90;;
12433;SDS011;6281;49.038;8.372;2024-02-26T14:12:03;0.80;;;0.60;;
12433;SDS011;6281;49.038;8.372;2024-02-26T14:14:30;0.70;;;0.70;;
12433;SDS011;6281;49.038;8.372;2024-02-26T14:17:01;1.20;;;1.10;;
12433;SDS011;6281;49.038;8.372;2024-02-26T14:19:28;1.90;;;0.70;;
12433;SDS011;6281;49.038;8.372;2024-02-26T14:21:55;3.03;;;2.73;;
12433;SDS011;6281;49.038;8.372;2024-02-26T14:24:22;2.37;;;1.03;;
12433;SDS011;6281;49.038;8.372;2024-02-26T14:26:49;1.40;;;0.97;;
12433;SDS011;6281;49.038;8.372;2024-02-26T14:29:18;0.97;;;0.73;;
12433;SDS011;6281;49.038;8.372;2024-02-26T14:31:45;1.53;;;0.90;;
12433;SDS011;6281;49.038;8.372;2024-02-26T14:34:12;1.33;;;0.90;;
12433;SDS011;6281;49.038;8.372;2024-02-26T14:36:38;2.17;;;0.70;;
12433;SDS011;6281;49.038;8.372;2024-02-26T14:39:05;0.73;;;0.70;;
12433;SDS011;6281;49.038;8.372;2024-02-26T14:41:36;1.00;;;0.70;;
12433;SDS011;6281;49.038;8.372;2024-02-26T14:44:03;0.70;;;0.70;;
12433;SDS011;6281;49.038;8.372;2024-02-26T14:46:31;1.03;;;0.80;;
12433;SDS011;6281;49.038;8.372;2024-02-26T14:48:58;0.90;;;0.70;;
12433;SDS011;6281;49.038;8.372;2024-02-26T14:51:25;1.73;;;0.73;;
12433;SDS011;6281;49.038;8.372;2024-02-26T14:53:52;1.93;;;0.63;;
12433;SDS011;6281;49.038;8.372;2024-02-26T14:56:19;0.60;;;0.60;;
12433;SDS011;6281;49.038;8.372;2024-02-26T14:58:46;0.80;;;0.80;;
12433;SDS011;6281;49.038;8.372;2024-02-26T15:01:13;0.83;;;0.80;;
12433;SDS011;6281;49.038;8.372;2024-02-26T15:03:41;2.40;;;0.80;;
12433;SDS011;6281;49.038;8.372;2024-02-26T15:06:08;1.13;;;0.80;;
12433;SDS011;6281;49.038;8.372;2024-02-26T15:08:35;2.37;;;0.77;;
12433;SDS011;6281;49.038;8.372;2024-02-26T15:11:03;0.97;;;0.57;;
12433;SDS011;6281;49.038;8.372;2024-02-26T15:13:30;0.67;;;0.63;;
12433;SDS011;6281;49.038;8.372;2024-02-26T15:15:57;0.80;;;0.70;;
12433;SDS011;6281;49.038;8.372;2024-02-26T15:18:24;0.83;;;0.70;;
12433;SDS011;6281;49.038;8.372;2024-02-26T15:20:52;2.07;;;0.67;;